sensor_id;sensor_type;location;lat;lon;timestamp;P1;durP1;ratioP1;P2;durP2;ratioP2
2305;SDS011;1161;51.922;8.896;2023-07-20T00:00:03;15.23;;;7.20;;
2305;SDS011;1161;51.922;8.896;2023-07-20T00:02:31;16.20;;;7.40;;
2305;SDS011;1161;51.922;8.896;2023-07-20T00:04:58;8.00;;;6.20;;
2305;SDS011;1161;51.922;8.896;2023-07-20T00:07:25;6.57;;;5.50;;
2305;SDS011;1161;51.922;8.896;2023-07-20T00:09:52;12.70;;;7.07;;
2305;SDS011;1161;51.922;8.896;2023-07-20T00:12:18;9.40;;;6.87;;
2305;SDS011;1161;51.922;8.896;2023-07-20T00:14:45;5.63;;;5.13;;
2305;SDS011;1161;51.922;8.896;2023-07-20T00:17:13;9.60;;;5.97;;
2305;SDS011;1161;51.922;8.896;2023-07-20T00:19:40;8.07;;;5.87;;
2305;SDS011;1161;51.922;8.896;2023-07-20T00:22:07;10.30;;;5.50;;
2305;SDS011;1161;51.922;8.896;2023-07-20T00:24:34;5.93;;;4.60;;
2305;SDS011;1161;51.922;8.896;2023-07-20T00:27:01;6.20;;;4.10;;
2305;SDS011;1161;51.922;8.896;2023-07-20T00:29:27;3.80;;;3.43;;
2305;SDS011;1161;51.922;8.896;2023-07-20T00:31:54;10.30;;;4.03;;
2305;SDS011;1161;51.922;8.896;2023-07-20T00:34:23;11.40;;;4.87;;
2305;SDS011;1161;51.922;8.896;2023-07-20T00:36:49;9.53;;;4.90;;
2305;SDS011;1161;51.922;8.896;2023-07-20T00:39:16;8.70;;;5.17;;
2305;SDS011;1161;51.922;8.896;2023-07-20T00:41:43;8.23;;;4.90;;
2305;SDS011;1161;51.922;8.896;2023-07-20T00:44:09;11.57;;;4.63;;
2305;SDS011;1161;51.922;8.896;2023-07-20T00:46:36;5.30;;;4.17;;
2305;SDS011;1161;51.922;8.896;2023-07-20T00:49:03;3.73;;;3.43;;
2305;SDS011;1161;51.922;8.896;2023-07-20T00:51:32;7.00;;;3.83;;
2305;SDS011;1161;51.922;8.896;2023-07-20T00:54:00;7.30;;;3.50;;
2305;SDS011;1161;51.922;8.896;2023-07-20T00:56:28;4.57;;;3.20;;
2305;SDS011;1161;51.922;8.896;2023-07-20T00:58:54;13.37;;;4.53;;
2305;SDS011;1161;51.922;8.896;2023-07-20T01:01:22;9.33;;;5.57;;
2305;SDS011;1161;51.922;8.896;2023-07-20T01:03:48;7.13;;;4.20;;
2305;SDS011;1161;51.922;8.896;2023-07-20T01:06:24;13.30;;;6.00;;
2305;SDS011;1161;51.922;8.896;2023-07-20T01:08:57;9.50;;;4.20;;
2305;SDS011;1161;51.922;8.896;2023-07-20T01:11:31;5.57;;;4.63;;
2305;SDS011;1161;51.922;8.896;2023-07-20T01:14:03;7.83;;;4.57;;
2305;SDS011;1161;51.922;8.896;2023-07-20T01:16:32;4.77;;;4.00;;
2305;SDS011;1161;51.922;8.896;2023-07-20T01:18:59;8.33;;;4.40;;
2305;SDS011;1161;51.922;8.896;2023-07-20T01:21:27;6.40;;;4.53;;
2305;SDS011;1161;51.922;8.896;2023-07-20T01:26:57;4.93;;;4.53;;
2305;SDS011;1161;51.922;8.896;2023-07-20T01:29:36;9.80;;;5.37;;
2305;SDS011;1161;51.922;8.896;2023-07-20T01:32:13;6.50;;;5.00;;
2305;SDS011;1161;51.922;8.896;2023-07-20T01:34:42;7.13;;;5.03;;
2305;SDS011;1161;51.922;8.896;2023-07-20T01:37:10;6.20;;;4.50;;
2305;SDS011;1161;51.922;8.896;2023-07-20T01:39:38;6.80;;;3.83;;
2305;SDS011;1161;51.922;8.896;2023-07-20T01:42:06;8.20;;;3.97;;
2305;SDS011;1161;51.922;8.896;2023-07-20T01:44:33;7.60;;;4.60;;
2305;SDS011;1161;51.922;8.896;2023-07-20T01:47:00;4.27;;;3.50;;
2305;SDS011;1161;51.922;8.896;2023-07-20T01:49:29;7.27;;;4.90;;
2305;SDS011;1161;51.922;8.896;2023-07-20T01:51:55;13.07;;;5.40;;
2305;SDS011;1161;51.922;8.896;2023-07-20T01:54:22;11.97;;;6.47;;
2305;SDS011;1161;51.922;8.896;2023-07-20T01:56:49;8.43;;;5.43;;
2305;SDS011;1161;51.922;8.896;2023-07-20T01:59:16;13.23;;;6.70;;
2305;SDS011;1161;51.922;8.896;2023-07-20T02:01:43;13.00;;;4.53;;
2305;SDS011;1161;51.922;8.896;2023-07-20T02:04:10;15.07;;;6.53;;
2305;SDS011;1161;51.922;8.896;2023-07-20T02:06:38;8.60;;;6.20;;
2305;SDS011;1161;51.922;8.896;2023-07-20T02:09:05;6.30;;;5.40;;
2305;SDS011;1161;51.922;8.896;2023-07-20T02:11:32;10.53;;;7.20;;
2305;SDS011;1161;51.922;8.896;2023-07-20T02:13:59;10.20;;;6.30;;
2305;SDS011;1161;51.922;8.896;2023-07-20T02:16:26;11.33;;;6.00;;
2305;SDS011;1161;51.922;8.896;2023-07-20T02:18:53;9.20;;;5.30;;
2305;SDS011;1161;51.922;8.896;2023-07-20T02:21:22;6.40;;;5.80;;
2305;SDS011;1161;51.922;8.896;2023-07-20T02:23:51;19.50;;;5.20;;
2305;SDS011;1161;51.922;8.896;2023-07-20T02:26:18;9.80;;;6.70;;
2305;SDS011;1161;51.922;8.896;2023-07-20T02:28:45;7.27;;;5.00;;
2305;SDS011;1161;51.922;8.896;2023-07-20T02:31:12;9.10;;;6.00;;
2305;SDS011;1161;51.922;8.896;2023-07-20T02:33:39;9.23;;;6.00;;
2305;SDS011;1161;51.922;8.896;2023-07-20T02:36:07;11.70;;;7.60;;
2305;SDS011;1161;51.922;8.896;2023-07-20T02:38:33;4.87;;;4.47;;
2305;SDS011;1161;51.922;8.896;2023-07-20T02:41:02;10.50;;;6.27;;
2305;SDS011;1161;51.922;8.896;2023-07-20T02:43:29;12.83;;;6.13;;
2305;SDS011;1161;51.922;8.896;2023-07-20T02:45:57;12.20;;;7.07;;
2305;SDS011;1161;51.922;8.896;2023-07-20T02:48:24;18.80;;;10.03;;
2305;SDS011;1161;51.922;8.896;2023-07-20T02:50:52;22.10;;;11.83;;
2305;SDS011;1161;51.922;8.896;2023-07-20T02:53:20;20.07;;;12.47;;
2305;SDS011;1161;51.922;8.896;2023-07-20T02:55:47;26.57;;;12.70;;
2305;SDS011;1161;51.922;8.896;2023-07-20T02:58:16;24.87;;;12.97;;
2305;SDS011;1161;51.922;8.896;2023-07-20T03:00:43;23.50;;;14.30;;
2305;SDS011;1161;51.922;8.896;2023-07-20T03:03:10;28.33;;;14.50;;
2305;SDS011;1161;51.922;8.896;2023-07-20T03:05:40;51.70;;;14.40;;
2305;SDS011;1161;51.922;8.896;2023-07-20T03:08:09;30.97;;;15.70;;
2305;SDS011;1161;51.922;8.896;2023-07-20T03:10:38;32.47;;;17.70;;
2305;SDS011;1161;51.922;8.896;2023-07-20T03:13:06;32.17;;;17.90;;
2305;SDS011;1161;51.922;8.896;2023-07-20T03:15:35;34.40;;;17.87;;
2305;SDS011;1161;51.922;8.896;2023-07-20T03:18:02;41.17;;;19.33;;
2305;SDS011;1161;51.922;8.896;2023-07-20T03:20:29;29.53;;;18.00;;
2305;SDS011;1161;51.922;8.896;2023-07-20T03:22:57;47.77;;;20.90;;
2305;SDS011;1161;51.922;8.896;2023-07-20T03:25:26;36.10;;;20.53;;
2305;SDS011;1161;51.922;8.896;2023-07-20T03:27:53;31.23;;;18.30;;
2305;SDS011;1161;51.922;8.896;2023-07-20T03:30:20;36.23;;;19.13;;
2305;SDS011;1161;51.922;8.896;2023-07-20T03:32:48;36.97;;;19.27;;
2305;SDS011;1161;51.922;8.896;2023-07-20T03:35:15;27.50;;;17.60;;
2305;SDS011;1161;51.922;8.896;2023-07-20T03:37:43;44.90;;;21.00;;
2305;SDS011;1161;51.922;8.896;2023-07-20T03:40:10;31.13;;;19.93;;
2305;SDS011;1161;51.922;8.896;2023-07-20T03:42:36;35.80;;;20.90;;
2305;SDS011;1161;51.922;8.896;2023-07-20T03:45:04;28.67;;;17.73;;
2305;SDS011;1161;51.922;8.896;2023-07-20T03:47:31;42.80;;;21.57;;
2305;SDS011;1161;51.922;8.896;2023-07-20T03:50:00;46.23;;;22.40;;
2305;SDS011;1161;51.922;8.896;2023-07-20T03:52:26;56.60;;;26.67;;
2305;SDS011;1161;51.922;8.896;2023-07-20T03:54:53;65.30;;;28.17;;
2305;SDS011;1161;51.922;8.896;2023-07-20T03:57:20;68.93;;;29.03;;
2305;SDS011;1161;51.922;8.896;2023-07-20T03:59:47;72.00;;;29.43;;
2305;SDS011;1161;51.922;8.896;2023-07-20T04:02:15;75.80;;;30.87;;
2305;SDS011;1161;51.922;8.896;2023-07-20T04:04:42;69.47;;;29.23;;
2305;SDS011;1161;51.922;8.896;2023-07-20T04:07:11;76.70;;;31.27;;
2305;SDS011;1161;51.922;8.896;2023-07-20T04:09:38;68.03;;;31.87;;
2305;SDS011;1161;51.922;8.896;2023-07-20T04:12:06;79.43;;;37.20;;
2305;SDS011;1161;51.922;8.896;2023-07-20T04:14:33;80.90;;;32.90;;
2305;SDS011;1161;51.922;8.896;2023-07-20T04:17:00;78.03;;;34.97;;
2305;SDS011;1161;51.922;8.896;2023-07-20T04:19:27;83.17;;;35.67;;
2305;SDS011;1161;51.922;8.896;2023-07-20T04:21:54;77.90;;;31.20;;
2305;SDS011;1161;51.922;8.896;2023-07-20T04:24:22;96.97;;;35.80;;
2305;SDS011;1161;51.922;8.896;2023-07-20T04:26:49;60.33;;;28.73;;
2305;SDS011;1161;51.922;8.896;2023-07-20T04:29:15;41.13;;;20.83;;
2305;SDS011;1161;51.922;8.896;2023-07-20T04:31:42;25.23;;;9.63;;
2305;SDS011;1161;51.922;8.896;2023-07-20T04:34:09;17.07;;;10.80;;
2305;SDS011;1161;51.922;8.896;2023-07-20T04:36:36;21.43;;;10.20;;
2305;SDS011;1161;51.922;8.896;2023-07-20T04:39:02;18.77;;;7.90;;
2305;SDS011;1161;51.922;8.896;2023-07-20T04:41:31;11.90;;;6.63;;
2305;SDS011;1161;51.922;8.896;2023-07-20T04:43:58;12.63;;;7.37;;
2305;SDS011;1161;51.922;8.896;2023-07-20T04:46:24;11.93;;;7.70;;
2305;SDS011;1161;51.922;8.896;2023-07-20T04:48:51;10.10;;;7.43;;
2305;SDS011;1161;51.922;8.896;2023-07-20T04:51:18;9.43;;;7.40;;
2305;SDS011;1161;51.922;8.896;2023-07-20T04:53:46;11.37;;;6.80;;
2305;SDS011;1161;51.922;8.896;2023-07-20T04:56:13;10.53;;;5.77;;
2305;SDS011;1161;51.922;8.896;2023-07-20T04:58:41;10.13;;;6.40;;
2305;SDS011;1161;51.922;8.896;2023-07-20T05:01:08;13.80;;;6.43;;
2305;SDS011;1161;51.922;8.896;2023-07-20T05:03:35;15.30;;;7.00;;
2305;SDS011;1161;51.922;8.896;2023-07-20T05:06:02;12.90;;;8.20;;
2305;SDS011;1161;51.922;8.896;2023-07-20T05:08:28;8.17;;;7.10;;
2305;SDS011;1161;51.922;8.896;2023-07-20T05:10:55;14.23;;;7.80;;
2305;SDS011;1161;51.922;8.896;2023-07-20T05:13:22;12.27;;;9.17;;
2305;SDS011;1161;51.922;8.896;2023-07-20T05:15:52;10.70;;;7.73;;
2305;SDS011;1161;51.922;8.896;2023-07-20T05:18:19;10.17;;;7.70;;
2305;SDS011;1161;51.922;8.896;2023-07-20T05:20:46;9.60;;;7.20;;
2305;SDS011;1161;51.922;8.896;2023-07-20T05:23:13;12.37;;;8.97;;
2305;SDS011;1161;51.922;8.896;2023-07-20T05:25:40;12.70;;;9.17;;
2305;SDS011;1161;51.922;8.896;2023-07-20T05:28:08;13.90;;;8.50;;
2305;SDS011;1161;51.922;8.896;2023-07-20T05:30:36;15.47;;;8.70;;
2305;SDS011;1161;51.922;8.896;2023-07-20T05:33:04;9.03;;;8.00;;
2305;SDS011;1161;51.922;8.896;2023-07-20T05:35:31;12.10;;;7.00;;
2305;SDS011;1161;51.922;8.896;2023-07-20T05:37:57;14.03;;;8.47;;
2305;SDS011;1161;51.922;8.896;2023-07-20T05:40:24;16.63;;;8.30;;
2305;SDS011;1161;51.922;8.896;2023-07-20T05:42:51;13.73;;;7.43;;
2305;SDS011;1161;51.922;8.896;2023-07-20T05:45:19;13.20;;;7.57;;
2305;SDS011;1161;51.922;8.896;2023-07-20T05:47:46;19.17;;;8.00;;
2305;SDS011;1161;51.922;8.896;2023-07-20T05:50:15;12.67;;;8.27;;
2305;SDS011;1161;51.922;8.896;2023-07-20T05:52:41;12.47;;;8.20;;
2305;SDS011;1161;51.922;8.896;2023-07-20T05:55:09;12.43;;;9.77;;
2305;SDS011;1161;51.922;8.896;2023-07-20T05:57:35;9.63;;;6.70;;
2305;SDS011;1161;51.922;8.896;2023-07-20T06:00:07;10.87;;;7.03;;
2305;SDS011;1161;51.922;8.896;2023-07-20T06:02:35;7.57;;;6.80;;
2305;SDS011;1161;51.922;8.896;2023-07-20T06:05:01;9.37;;;6.97;;
2305;SDS011;1161;51.922;8.896;2023-07-20T06:07:30;9.33;;;6.50;;
2305;SDS011;1161;51.922;8.896;2023-07-20T06:09:57;9.37;;;7.07;;
2305;SDS011;1161;51.922;8.896;2023-07-20T06:12:24;8.73;;;7.00;;
2305;SDS011;1161;51.922;8.896;2023-07-20T06:14:51;10.50;;;7.20;;
2305;SDS011;1161;51.922;8.896;2023-07-20T06:17:18;8.50;;;7.70;;
2305;SDS011;1161;51.922;8.896;2023-07-20T06:19:45;8.80;;;6.40;;
2305;SDS011;1161;51.922;8.896;2023-07-20T06:22:12;13.10;;;6.47;;
2305;SDS011;1161;51.922;8.896;2023-07-20T06:24:40;9.10;;;6.77;;
2305;SDS011;1161;51.922;8.896;2023-07-20T06:27:07;8.10;;;6.30;;
2305;SDS011;1161;51.922;8.896;2023-07-20T06:29:33;9.40;;;7.17;;
2305;SDS011;1161;51.922;8.896;2023-07-20T06:32:00;11.40;;;7.23;;
2305;SDS011;1161;51.922;8.896;2023-07-20T06:34:27;9.70;;;6.77;;
2305;SDS011;1161;51.922;8.896;2023-07-20T06:36:54;11.33;;;6.63;;
2305;SDS011;1161;51.922;8.896;2023-07-20T06:39:21;12.93;;;6.60;;
2305;SDS011;1161;51.922;8.896;2023-07-20T06:41:50;14.33;;;6.80;;
2305;SDS011;1161;51.922;8.896;2023-07-20T06:44:17;13.03;;;8.10;;
2305;SDS011;1161;51.922;8.896;2023-07-20T06:46:44;10.60;;;7.40;;
2305;SDS011;1161;51.922;8.896;2023-07-20T06:49:15;9.40;;;7.63;;
2305;SDS011;1161;51.922;8.896;2023-07-20T06:51:50;5.43;;;4.93;;
2305;SDS011;1161;51.922;8.896;2023-07-20T06:54:17;6.23;;;4.93;;
2305;SDS011;1161;51.922;8.896;2023-07-20T06:56:44;12.57;;;4.67;;
2305;SDS011;1161;51.922;8.896;2023-07-20T06:59:12;5.87;;;5.27;;
2305;SDS011;1161;51.922;8.896;2023-07-20T07:01:39;5.13;;;4.40;;
2305;SDS011;1161;51.922;8.896;2023-07-20T07:04:06;8.03;;;3.97;;
2305;SDS011;1161;51.922;8.896;2023-07-20T07:06:32;6.93;;;4.07;;
2305;SDS011;1161;51.922;8.896;2023-07-20T07:09:00;3.40;;;3.10;;
2305;SDS011;1161;51.922;8.896;2023-07-20T07:11:27;3.70;;;3.40;;
2305;SDS011;1161;51.922;8.896;2023-07-20T07:13:54;6.20;;;3.17;;
2305;SDS011;1161;51.922;8.896;2023-07-20T07:16:22;2.53;;;2.43;;
2305;SDS011;1161;51.922;8.896;2023-07-20T07:18:50;3.70;;;2.50;;
2305;SDS011;1161;51.922;8.896;2023-07-20T07:21:17;3.13;;;3.00;;
2305;SDS011;1161;51.922;8.896;2023-07-20T07:23:43;5.13;;;2.40;;
2305;SDS011;1161;51.922;8.896;2023-07-20T07:26:11;2.23;;;1.93;;
2305;SDS011;1161;51.922;8.896;2023-07-20T07:28:38;2.03;;;1.93;;
2305;SDS011;1161;51.922;8.896;2023-07-20T07:31:05;2.77;;;2.57;;
2305;SDS011;1161;51.922;8.896;2023-07-20T07:33:33;2.47;;;2.37;;
2305;SDS011;1161;51.922;8.896;2023-07-20T07:36:00;2.70;;;1.97;;
2305;SDS011;1161;51.922;8.896;2023-07-20T07:38:27;2.77;;;2.57;;
2305;SDS011;1161;51.922;8.896;2023-07-20T07:40:54;3.53;;;3.23;;
2305;SDS011;1161;51.922;8.896;2023-07-20T07:43:21;2.00;;;1.90;;
2305;SDS011;1161;51.922;8.896;2023-07-20T07:45:49;2.40;;;2.13;;
2305;SDS011;1161;51.922;8.896;2023-07-20T07:48:16;2.70;;;2.50;;
2305;SDS011;1161;51.922;8.896;2023-07-20T07:50:45;6.53;;;2.30;;
2305;SDS011;1161;51.922;8.896;2023-07-20T07:53:11;9.00;;;2.57;;
2305;SDS011;1161;51.922;8.896;2023-07-20T07:55:38;3.10;;;2.57;;
2305;SDS011;1161;51.922;8.896;2023-07-20T07:58:06;1.70;;;1.70;;
2305;SDS011;1161;51.922;8.896;2023-07-20T08:00:33;2.20;;;2.00;;
2305;SDS011;1161;51.922;8.896;2023-07-20T08:03:00;5.93;;;2.30;;
2305;SDS011;1161;51.922;8.896;2023-07-20T08:05:27;2.03;;;1.90;;
2305;SDS011;1161;51.922;8.896;2023-07-20T08:07:55;1.63;;;1.53;;
2305;SDS011;1161;51.922;8.896;2023-07-20T08:10:22;2.20;;;1.33;;
2305;SDS011;1161;51.922;8.896;2023-07-20T08:12:49;1.33;;;1.23;;
2305;SDS011;1161;51.922;8.896;2023-07-20T08:15:16;4.30;;;1.97;;
2305;SDS011;1161;51.922;8.896;2023-07-20T08:17:43;1.90;;;1.87;;
2305;SDS011;1161;51.922;8.896;2023-07-20T08:20:10;1.47;;;1.47;;
2305;SDS011;1161;51.922;8.896;2023-07-20T08:22:38;2.07;;;1.97;;
2305;SDS011;1161;51.922;8.896;2023-07-20T08:25:07;2.00;;;1.30;;
2305;SDS011;1161;51.922;8.896;2023-07-20T08:27:35;1.30;;;1.30;;
2305;SDS011;1161;51.922;8.896;2023-07-20T08:30:03;2.10;;;1.30;;
2305;SDS011;1161;51.922;8.896;2023-07-20T08:32:32;1.00;;;1.00;;
2305;SDS011;1161;51.922;8.896;2023-07-20T08:34:59;1.90;;;1.13;;
2305;SDS011;1161;51.922;8.896;2023-07-20T08:37:26;1.77;;;1.67;;
2305;SDS011;1161;51.922;8.896;2023-07-20T08:39:52;1.30;;;1.30;;
2305;SDS011;1161;51.922;8.896;2023-07-20T08:42:20;1.83;;;1.57;;
2305;SDS011;1161;51.922;8.896;2023-07-20T08:44:48;3.30;;;1.87;;
2305;SDS011;1161;51.922;8.896;2023-07-20T08:47:16;1.83;;;1.73;;
2305;SDS011;1161;51.922;8.896;2023-07-20T08:49:44;1.47;;;1.40;;
2305;SDS011;1161;51.922;8.896;2023-07-20T08:52:14;0.83;;;0.83;;
2305;SDS011;1161;51.922;8.896;2023-07-20T08:54:41;2.03;;;1.03;;
2305;SDS011;1161;51.922;8.896;2023-07-20T08:57:08;0.87;;;0.87;;
2305;SDS011;1161;51.922;8.896;2023-07-20T08:59:39;2.90;;;1.47;;
2305;SDS011;1161;51.922;8.896;2023-07-20T09:02:06;1.33;;;0.87;;
2305;SDS011;1161;51.922;8.896;2023-07-20T09:04:35;1.00;;;1.00;;
2305;SDS011;1161;51.922;8.896;2023-07-20T09:07:02;0.90;;;0.90;;
2305;SDS011;1161;51.922;8.896;2023-07-20T09:09:28;2.27;;;1.07;;
2305;SDS011;1161;51.922;8.896;2023-07-20T09:11:55;4.83;;;0.90;;
2305;SDS011;1161;51.922;8.896;2023-07-20T09:14:23;2.37;;;2.27;;
2305;SDS011;1161;51.922;8.896;2023-07-20T09:16:51;0.93;;;0.93;;
2305;SDS011;1161;51.922;8.896;2023-07-20T09:19:20;0.93;;;0.90;;
2305;SDS011;1161;51.922;8.896;2023-07-20T09:21:48;1.20;;;1.00;;
2305;SDS011;1161;51.922;8.896;2023-07-20T09:24:17;0.80;;;0.80;;
2305;SDS011;1161;51.922;8.896;2023-07-20T09:26:45;1.30;;;0.73;;
2305;SDS011;1161;51.922;8.896;2023-07-20T09:29:13;1.40;;;0.90;;
2305;SDS011;1161;51.922;8.896;2023-07-20T09:31:40;0.87;;;0.80;;
2305;SDS011;1161;51.922;8.896;2023-07-20T09:34:08;1.23;;;1.13;;
2305;SDS011;1161;51.922;8.896;2023-07-20T09:36:35;1.07;;;0.83;;
2305;SDS011;1161;51.922;8.896;2023-07-20T09:39:03;1.73;;;1.50;;
2305;SDS011;1161;51.922;8.896;2023-07-20T09:41:30;0.83;;;0.83;;
2305;SDS011;1161;51.922;8.896;2023-07-20T09:43:57;1.97;;;0.97;;
2305;SDS011;1161;51.922;8.896;2023-07-20T09:46:24;1.13;;;1.13;;
2305;SDS011;1161;51.922;8.896;2023-07-20T09:48:51;1.00;;;1.00;;
2305;SDS011;1161;51.922;8.896;2023-07-20T09:51:20;0.97;;;0.97;;
2305;SDS011;1161;51.922;8.896;2023-07-20T09:53:48;1.17;;;0.70;;
2305;SDS011;1161;51.922;8.896;2023-07-20T09:56:15;1.23;;;1.13;;
2305;SDS011;1161;51.922;8.896;2023-07-20T09:58:44;1.10;;;1.10;;
2305;SDS011;1161;51.922;8.896;2023-07-20T10:01:12;1.43;;;1.13;;
2305;SDS011;1161;51.922;8.896;2023-07-20T10:03:41;4.00;;;1.50;;
2305;SDS011;1161;51.922;8.896;2023-07-20T10:06:10;1.77;;;1.33;;
2305;SDS011;1161;51.922;8.896;2023-07-20T10:08:41;1.90;;;1.33;;
2305;SDS011;1161;51.922;8.896;2023-07-20T10:11:09;23.07;;;1.20;;
2305;SDS011;1161;51.922;8.896;2023-07-20T10:13:38;3.13;;;1.10;;
2305;SDS011;1161;51.922;8.896;2023-07-20T10:16:07;0.93;;;0.93;;
2305;SDS011;1161;51.922;8.896;2023-07-20T10:18:38;1.00;;;1.00;;
2305;SDS011;1161;51.922;8.896;2023-07-20T10:21:09;1.17;;;1.07;;
2305;SDS011;1161;51.922;8.896;2023-07-20T10:23:36;2.40;;;1.40;;
2305;SDS011;1161;51.922;8.896;2023-07-20T10:26:04;1.47;;;1.37;;
2305;SDS011;1161;51.922;8.896;2023-07-20T10:28:31;1.37;;;1.30;;
2305;SDS011;1161;51.922;8.896;2023-07-20T10:30:58;1.40;;;1.30;;
2305;SDS011;1161;51.922;8.896;2023-07-20T10:33:25;1.70;;;1.20;;
2305;SDS011;1161;51.922;8.896;2023-07-20T10:35:53;4.23;;;1.50;;
2305;SDS011;1161;51.922;8.896;2023-07-20T10:38:20;1.33;;;1.23;;
2305;SDS011;1161;51.922;8.896;2023-07-20T10:41:06;1.10;;;1.10;;
2305;SDS011;1161;51.922;8.896;2023-07-20T10:43:42;3.27;;;1.40;;
2305;SDS011;1161;51.922;8.896;2023-07-20T10:46:10;0.90;;;0.90;;
2305;SDS011;1161;51.922;8.896;2023-07-20T10:48:39;2.83;;;1.43;;
2305;SDS011;1161;51.922;8.896;2023-07-20T10:51:25;0.83;;;0.80;;
2305;SDS011;1161;51.922;8.896;2023-07-20T10:53:51;0.70;;;0.70;;
2305;SDS011;1161;51.922;8.896;2023-07-20T10:56:22;1.07;;;0.97;;
2305;SDS011;1161;51.922;8.896;2023-07-20T10:58:49;0.70;;;0.70;;
2305;SDS011;1161;51.922;8.896;2023-07-20T11:01:17;1.17;;;1.17;;
2305;SDS011;1161;51.922;8.896;2023-07-20T11:03:48;4.33;;;1.17;;
2305;SDS011;1161;51.922;8.896;2023-07-20T11:06:32;26.67;;;1.50;;
2305;SDS011;1161;51.922;8.896;2023-07-20T11:09:04;1.80;;;1.27;;
2305;SDS011;1161;51.922;8.896;2023-07-20T11:11:35;1.20;;;1.20;;
2305;SDS011;1161;51.922;8.896;2023-07-20T11:14:03;1.23;;;1.17;;
2305;SDS011;1161;51.922;8.896;2023-07-20T11:16:32;1.30;;;0.90;;
2305;SDS011;1161;51.922;8.896;2023-07-20T11:19:04;0.90;;;0.90;;
2305;SDS011;1161;51.922;8.896;2023-07-20T11:21:35;3.13;;;2.13;;
2305;SDS011;1161;51.922;8.896;2023-07-20T11:24:03;3.23;;;1.20;;
2305;SDS011;1161;51.922;8.896;2023-07-20T11:26:30;1.27;;;1.17;;
2305;SDS011;1161;51.922;8.896;2023-07-20T11:29:07;1.00;;;1.00;;
2305;SDS011;1161;51.922;8.896;2023-07-20T11:31:37;0.70;;;0.70;;
2305;SDS011;1161;51.922;8.896;2023-07-20T11:34:04;2.67;;;1.10;;
2305;SDS011;1161;51.922;8.896;2023-07-20T11:36:31;2.63;;;0.90;;
2305;SDS011;1161;51.922;8.896;2023-07-20T11:38:58;1.53;;;0.97;;
2305;SDS011;1161;51.922;8.896;2023-07-20T11:41:25;0.90;;;0.90;;
2305;SDS011;1161;51.922;8.896;2023-07-20T11:43:53;0.70;;;0.63;;
2305;SDS011;1161;51.922;8.896;2023-07-20T11:46:20;2.10;;;0.90;;
2305;SDS011;1161;51.922;8.896;2023-07-20T11:48:47;3.60;;;1.33;;
2305;SDS011;1161;51.922;8.896;2023-07-20T11:51:14;0.93;;;0.93;;
2305;SDS011;1161;51.922;8.896;2023-07-20T11:53:42;3.07;;;1.03;;
2305;SDS011;1161;51.922;8.896;2023-07-20T11:56:10;5.30;;;1.27;;
2305;SDS011;1161;51.922;8.896;2023-07-20T11:58:41;0.97;;;0.97;;
2305;SDS011;1161;51.922;8.896;2023-07-20T12:01:09;1.00;;;1.00;;
2305;SDS011;1161;51.922;8.896;2023-07-20T12:03:36;5.20;;;1.30;;
2305;SDS011;1161;51.922;8.896;2023-07-20T12:06:06;0.87;;;0.87;;
2305;SDS011;1161;51.922;8.896;2023-07-20T12:08:34;0.70;;;0.70;;
2305;SDS011;1161;51.922;8.896;2023-07-20T12:11:01;1.90;;;1.00;;
2305;SDS011;1161;51.922;8.896;2023-07-20T12:13:38;2.40;;;1.33;;
2305;SDS011;1161;51.922;8.896;2023-07-20T12:16:10;0.83;;;0.83;;
2305;SDS011;1161;51.922;8.896;2023-07-20T12:18:38;2.00;;;0.80;;
2305;SDS011;1161;51.922;8.896;2023-07-20T12:21:05;0.97;;;0.97;;
2305;SDS011;1161;51.922;8.896;2023-07-20T12:23:34;0.80;;;0.80;;
2305;SDS011;1161;51.922;8.896;2023-07-20T12:26:02;1.60;;;1.50;;
2305;SDS011;1161;51.922;8.896;2023-07-20T12:28:30;1.20;;;1.20;;
2305;SDS011;1161;51.922;8.896;2023-07-20T12:30:58;1.00;;;0.90;;
2305;SDS011;1161;51.922;8.896;2023-07-20T12:33:26;1.20;;;1.07;;
2305;SDS011;1161;51.922;8.896;2023-07-20T12:35:53;1.40;;;1.40;;
2305;SDS011;1161;51.922;8.896;2023-07-20T12:38:21;1.63;;;1.43;;
2305;SDS011;1161;51.922;8.896;2023-07-20T12:40:49;4.00;;;1.30;;
2305;SDS011;1161;51.922;8.896;2023-07-20T12:43:16;1.20;;;1.20;;
2305;SDS011;1161;51.922;8.896;2023-07-20T12:45:42;1.57;;;1.50;;
2305;SDS011;1161;51.922;8.896;2023-07-20T12:48:09;1.63;;;1.53;;
2305;SDS011;1161;51.922;8.896;2023-07-20T12:50:38;1.60;;;1.50;;
2305;SDS011;1161;51.922;8.896;2023-07-20T12:53:05;1.77;;;1.77;;
2305;SDS011;1161;51.922;8.896;2023-07-20T12:55:32;3.60;;;1.93;;
2305;SDS011;1161;51.922;8.896;2023-07-20T12:57:59;3.70;;;2.13;;
2305;SDS011;1161;51.922;8.896;2023-07-20T13:00:25;1.60;;;1.50;;
2305;SDS011;1161;51.922;8.896;2023-07-20T13:02:52;1.57;;;1.57;;
2305;SDS011;1161;51.922;8.896;2023-07-20T13:05:19;2.03;;;1.93;;
2305;SDS011;1161;51.922;8.896;2023-07-20T13:07:48;1.57;;;1.57;;
2305;SDS011;1161;51.922;8.896;2023-07-20T13:10:14;2.40;;;2.30;;
2305;SDS011;1161;51.922;8.896;2023-07-20T13:12:41;2.37;;;2.27;;
2305;SDS011;1161;51.922;8.896;2023-07-20T13:15:08;2.67;;;1.90;;
2305;SDS011;1161;51.922;8.896;2023-07-20T13:17:37;2.20;;;2.10;;
2305;SDS011;1161;51.922;8.896;2023-07-20T13:20:07;4.20;;;2.10;;
2305;SDS011;1161;51.922;8.896;2023-07-20T13:22:36;2.17;;;2.07;;
2305;SDS011;1161;51.922;8.896;2023-07-20T13:25:04;2.53;;;2.43;;
2305;SDS011;1161;51.922;8.896;2023-07-20T13:27:32;2.40;;;2.30;;
2305;SDS011;1161;51.922;8.896;2023-07-20T13:29:59;2.40;;;2.30;;
2305;SDS011;1161;51.922;8.896;2023-07-20T13:32:32;2.20;;;2.10;;
2305;SDS011;1161;51.922;8.896;2023-07-20T13:34:59;4.23;;;3.07;;
2305;SDS011;1161;51.922;8.896;2023-07-20T13:37:25;2.23;;;2.10;;
2305;SDS011;1161;51.922;8.896;2023-07-20T13:39:53;2.87;;;2.07;;
2305;SDS011;1161;51.922;8.896;2023-07-20T13:42:21;1.83;;;1.73;;
2305;SDS011;1161;51.922;8.896;2023-07-20T13:44:48;2.20;;;2.10;;
2305;SDS011;1161;51.922;8.896;2023-07-20T13:47:15;2.30;;;2.20;;
2305;SDS011;1161;51.922;8.896;2023-07-20T13:49:43;2.90;;;2.70;;
2305;SDS011;1161;51.922;8.896;2023-07-20T13:52:09;1.50;;;1.40;;
2305;SDS011;1161;51.922;8.896;2023-07-20T13:54:36;2.17;;;1.97;;
2305;SDS011;1161;51.922;8.896;2023-07-20T13:57:03;1.90;;;1.80;;
2305;SDS011;1161;51.922;8.896;2023-07-20T13:59:31;2.27;;;2.17;;
2305;SDS011;1161;51.922;8.896;2023-07-20T14:01:58;6.40;;;2.37;;
2305;SDS011;1161;51.922;8.896;2023-07-20T14:04:25;2.27;;;2.17;;
2305;SDS011;1161;51.922;8.896;2023-07-20T14:06:52;6.50;;;2.73;;
2305;SDS011;1161;51.922;8.896;2023-07-20T14:09:19;2.93;;;2.50;;
2305;SDS011;1161;51.922;8.896;2023-07-20T14:11:46;4.20;;;2.30;;
2305;SDS011;1161;51.922;8.896;2023-07-20T14:14:12;8.23;;;2.93;;
2305;SDS011;1161;51.922;8.896;2023-07-20T14:16:40;2.13;;;1.87;;
2305;SDS011;1161;51.922;8.896;2023-07-20T14:19:07;3.90;;;1.80;;
2305;SDS011;1161;51.922;8.896;2023-07-20T14:21:34;2.37;;;2.27;;
2305;SDS011;1161;51.922;8.896;2023-07-20T14:24:01;2.50;;;2.40;;
2305;SDS011;1161;51.922;8.896;2023-07-20T14:26:28;1.93;;;1.83;;
2305;SDS011;1161;51.922;8.896;2023-07-20T14:28:55;2.20;;;1.57;;
2305;SDS011;1161;51.922;8.896;2023-07-20T14:31:21;1.70;;;1.70;;
2305;SDS011;1161;51.922;8.896;2023-07-20T14:33:50;1.80;;;1.70;;
2305;SDS011;1161;51.922;8.896;2023-07-20T14:36:16;1.67;;;1.57;;
2305;SDS011;1161;51.922;8.896;2023-07-20T14:38:43;1.40;;;1.40;;
2305;SDS011;1161;51.922;8.896;2023-07-20T14:41:10;1.67;;;1.60;;
2305;SDS011;1161;51.922;8.896;2023-07-20T14:43:37;1.50;;;1.40;;
2305;SDS011;1161;51.922;8.896;2023-07-20T14:46:04;0.93;;;0.93;;
2305;SDS011;1161;51.922;8.896;2023-07-20T14:48:32;1.53;;;1.40;;
2305;SDS011;1161;51.922;8.896;2023-07-20T14:51:00;1.20;;;1.20;;
2305;SDS011;1161;51.922;8.896;2023-07-20T14:53:26;1.57;;;1.47;;
2305;SDS011;1161;51.922;8.896;2023-07-20T14:55:58;1.03;;;0.80;;
2305;SDS011;1161;51.922;8.896;2023-07-20T14:58:25;2.43;;;1.37;;
2305;SDS011;1161;51.922;8.896;2023-07-20T15:00:52;1.87;;;1.77;;
2305;SDS011;1161;51.922;8.896;2023-07-20T15:03:19;2.43;;;1.40;;
2305;SDS011;1161;51.922;8.896;2023-07-20T15:05:45;1.37;;;1.37;;
2305;SDS011;1161;51.922;8.896;2023-07-20T15:08:14;2.43;;;0.90;;
2305;SDS011;1161;51.922;8.896;2023-07-20T15:10:40;1.20;;;1.20;;
2305;SDS011;1161;51.922;8.896;2023-07-20T15:13:09;1.17;;;0.90;;
2305;SDS011;1161;51.922;8.896;2023-07-20T15:15:36;1.00;;;1.00;;